Wdfw R/v 699 — WDI9957 — position and weather

sailwx.info

Track history (hours):
 
Tides and Currents Weather Stations Pressure Air Temp Water Temp Dewpoint Dewpoint Depression Visibility Wind Speed Wind Dir Waves Ship Positions

Wdfw R/v 699

Owner: Washington, State of, OLYMPIA, WA. More information available from US FCC via Universal Licensing System.

Last reported at 2018-Jun-14 23:05 UTC. Time now 2018-Jun-18 02:15 UTC.
Position N 47°41' W 122°48'.

Length 12 m.

Type: Fishing. MMSI: 367753870.

Date/timePositionNaut miles runAvg speedWind from/ knotsBaromVisibWave heightAir tempDewpointWater temp
2018-Jun-14 23:05N 47°41' W 122°48'221.6
2018-Jun-14 22:59N 47°42' W 122°50'5 4.9
2018-Jun-14 21:56N 47°47' W 122°52'0 0.9
2018-Jun-14 21:27N 47°48' W 122°51'1 1.3
2018-Jun-14 21:00N 47°47' W 122°51'7 2.2
2018-Jun-14 17:59N 47°47' W 122°41'810.6
2018-Jun-14 17:15N 47°41' W 122°48'3 0.2
2018-Jun-13 23:15N 47°40' W 122°53'624.7
2018-Jun-13 23:00N 47°46' W 122°51'1 1.2
2018-Jun-13 22:30N 47°47' W 122°51'816.6
2018-Jun-13 22:00N 47°39' W 122°51'0 0.7
2018-Jun-13 21:30N 47°39' W 122°51'0 0.6
2018-Jun-13 21:00N 47°39' W 122°51'2 0.8
2018-Jun-13 19:04N 47°41' W 122°50'114.6
2018-Jun-13 18:58N 47°40' W 122°51'817.3
2018-Jun-13 18:30N 47°34' W 122°59'0 0.4
2018-Jun-13 17:59N 47°34' W 122°59'0 0.8
2018-Jun-13 17:28N 47°34' W 122°59'1 1.0
2018-Jun-13 16:55N 47°35' W 122°59'6 0.4
2018-Jun-12 23:52N 47°40' W 122°54'2 3.9
2018-Jun-12 23:22N 47°39' W 122°51'9 6.2
2018-Jun-12 21:53N 47°33' W 123°00'8 0.3
2018-Jun-11 20:48N 47°40' W 122°54'  
Track history (hours):
 
Tides and Currents Weather Stations Pressure Air Temp Water Temp Dewpoint Dewpoint Depression Visibility Wind Speed Wind Dir Waves Ship Positions

Wdfw R/v 699

Owner: Washington, State of, OLYMPIA, WA. More information available from US FCC via Universal Licensing System.

Last reported at 2018-Jun-14 23:05 UTC. Time now 2018-Jun-18 02:15 UTC.
Position N 47°41' W 122°48'.

Length 12 m.

Type: Fishing. MMSI: 367753870.

Date/timePositionNaut miles runAvg speedWind from/ knotsBaromVisibWave heightAir tempDewpointWater temp
2018-Jun-14 23:05N 47°41' W 122°48'221.6
2018-Jun-14 22:59N 47°42' W 122°50'5 4.9
2018-Jun-14 21:56N 47°47' W 122°52'0 0.9
2018-Jun-14 21:27N 47°48' W 122°51'1 1.3
2018-Jun-14 21:00N 47°47' W 122°51'7 2.2
2018-Jun-14 17:59N 47°47' W 122°41'810.6
2018-Jun-14 17:15N 47°41' W 122°48'3 0.2
2018-Jun-13 23:15N 47°40' W 122°53'624.7
2018-Jun-13 23:00N 47°46' W 122°51'1 1.2
2018-Jun-13 22:30N 47°47' W 122°51'816.6
2018-Jun-13 22:00N 47°39' W 122°51'0 0.7
2018-Jun-13 21:30N 47°39' W 122°51'0 0.6
2018-Jun-13 21:00N 47°39' W 122°51'2 0.8
2018-Jun-13 19:04N 47°41' W 122°50'114.6
2018-Jun-13 18:58N 47°40' W 122°51'817.3
2018-Jun-13 18:30N 47°34' W 122°59'0 0.4
2018-Jun-13 17:59N 47°34' W 122°59'0 0.8
2018-Jun-13 17:28N 47°34' W 122°59'1 1.0
2018-Jun-13 16:55N 47°35' W 122°59'6 0.4
2018-Jun-12 23:52N 47°40' W 122°54'2 3.9
2018-Jun-12 23:22N 47°39' W 122°51'9 6.2
2018-Jun-12 21:53N 47°33' W 123°00'8 0.3
2018-Jun-11 20:48N 47°40' W 122°54'  

Dump ship's entire track history